sensor_id;sensor_type;location;lat;lon;timestamp;P1;durP1;ratioP1;P2;durP2;ratioP2
57241;SDS011;43095;53.302;5.786;2023-02-28T00:00:40;10.10;;;2.42;;
57241;SDS011;43095;53.302;5.786;2023-02-28T00:03:07;13.27;;;3.42;;
57241;SDS011;43095;53.302;5.786;2023-02-28T00:05:35;10.30;;;2.50;;
57241;SDS011;43095;53.302;5.786;2023-02-28T00:08:02;16.67;;;3.42;;
57241;SDS011;43095;53.302;5.786;2023-02-28T00:10:30;14.20;;;2.65;;
57241;SDS011;43095;53.302;5.786;2023-02-28T00:13:05;11.55;;;3.38;;
57241;SDS011;43095;53.302;5.786;2023-02-28T00:15:33;15.10;;;4.68;;
57241;SDS011;43095;53.302;5.786;2023-02-28T00:18:01;11.38;;;3.35;;
57241;SDS011;43095;53.302;5.786;2023-02-28T00:20:29;12.38;;;2.38;;
57241;SDS011;43095;53.302;5.786;2023-02-28T00:22:57;13.77;;;3.40;;
57241;SDS011;43095;53.302;5.786;2023-02-28T00:25:24;10.95;;;2.58;;
57241;SDS011;43095;53.302;5.786;2023-02-28T00:27:52;17.98;;;3.53;;
57241;SDS011;43095;53.302;5.786;2023-02-28T00:30:20;12.35;;;2.58;;
57241;SDS011;43095;53.302;5.786;2023-02-28T00:32:49;18.33;;;3.17;;
57241;SDS011;43095;53.302;5.786;2023-02-28T00:35:17;10.57;;;2.30;;
57241;SDS011;43095;53.302;5.786;2023-02-28T00:37:45;16.85;;;2.58;;
57241;SDS011;43095;53.302;5.786;2023-02-28T00:40:12;9.60;;;2.20;;
57241;SDS011;43095;53.302;5.786;2023-02-28T00:42:40;14.32;;;2.60;;
57241;SDS011;43095;53.302;5.786;2023-02-28T00:45:07;10.40;;;2.45;;
57241;SDS011;43095;53.302;5.786;2023-02-28T00:47:37;11.95;;;3.60;;
57241;SDS011;43095;53.302;5.786;2023-02-28T00:50:05;13.00;;;3.15;;
57241;SDS011;43095;53.302;5.786;2023-02-28T00:52:38;10.00;;;2.20;;
57241;SDS011;43095;53.302;5.786;2023-02-28T00:55:05;13.02;;;2.30;;
57241;SDS011;43095;53.302;5.786;2023-02-28T00:57:33;11.85;;;2.20;;
57241;SDS011;43095;53.302;5.786;2023-02-28T01:00:03;7.03;;;1.40;;
57241;SDS011;43095;53.302;5.786;2023-02-28T01:02:31;10.75;;;2.00;;
57241;SDS011;43095;53.302;5.786;2023-02-28T01:04:58;10.75;;;2.15;;
57241;SDS011;43095;53.302;5.786;2023-02-28T01:07:28;12.20;;;1.92;;
57241;SDS011;43095;53.302;5.786;2023-02-28T01:09:56;14.55;;;2.78;;
57241;SDS011;43095;53.302;5.786;2023-02-28T01:12:24;17.25;;;1.90;;
57241;SDS011;43095;53.302;5.786;2023-02-28T01:14:54;11.80;;;2.30;;
57241;SDS011;43095;53.302;5.786;2023-02-28T01:17:22;9.73;;;1.48;;
57241;SDS011;43095;53.302;5.786;2023-02-28T01:19:49;4.93;;;1.50;;
57241;SDS011;43095;53.302;5.786;2023-02-28T01:22:20;7.95;;;1.33;;
57241;SDS011;43095;53.302;5.786;2023-02-28T01:24:47;8.20;;;1.60;;
57241;SDS011;43095;53.302;5.786;2023-02-28T01:27:15;9.27;;;1.40;;
57241;SDS011;43095;53.302;5.786;2023-02-28T01:29:43;11.23;;;1.38;;
57241;SDS011;43095;53.302;5.786;2023-02-28T01:32:10;10.10;;;1.75;;
57241;SDS011;43095;53.302;5.786;2023-02-28T01:34:38;12.73;;;1.50;;
57241;SDS011;43095;53.302;5.786;2023-02-28T01:37:05;9.10;;;1.85;;
57241;SDS011;43095;53.302;5.786;2023-02-28T01:39:33;10.57;;;2.47;;
57241;SDS011;43095;53.302;5.786;2023-02-28T01:42:02;10.38;;;1.65;;
57241;SDS011;43095;53.302;5.786;2023-02-28T01:47:16;11.60;;;1.83;;
57241;SDS011;43095;53.302;5.786;2023-02-28T01:49:43;15.57;;;2.38;;
57241;SDS011;43095;53.302;5.786;2023-02-28T01:52:11;12.43;;;1.98;;
57241;SDS011;43095;53.302;5.786;2023-02-28T01:54:47;12.25;;;2.30;;
57241;SDS011;43095;53.302;5.786;2023-02-28T01:57:17;14.43;;;3.97;;
57241;SDS011;43095;53.302;5.786;2023-02-28T02:08:48;12.15;;;2.83;;
57241;SDS011;43095;53.302;5.786;2023-02-28T02:46:03;24.23;;;2.95;;
57241;SDS011;43095;53.302;5.786;2023-02-28T02:53:56;10.68;;;3.90;;
57241;SDS011;43095;53.302;5.786;2023-02-28T02:57:25;11.07;;;2.70;;
57241;SDS011;43095;53.302;5.786;2023-02-28T03:01:27;10.85;;;1.88;;
57241;SDS011;43095;53.302;5.786;2023-02-28T03:09:05;10.30;;;1.90;;
57241;SDS011;43095;53.302;5.786;2023-02-28T03:24:26;9.63;;;1.48;;
57241;SDS011;43095;53.302;5.786;2023-02-28T03:36:53;8.70;;;1.23;;
57241;SDS011;43095;53.302;5.786;2023-02-28T06:46:29;11.20;;;2.42;;
57241;SDS011;43095;53.302;5.786;2023-02-28T06:48:56;22.13;;;2.50;;
57241;SDS011;43095;53.302;5.786;2023-02-28T06:51:24;12.93;;;3.33;;
57241;SDS011;43095;53.302;5.786;2023-02-28T06:53:53;9.85;;;5.65;;
57241;SDS011;43095;53.302;5.786;2023-02-28T06:56:21;9.55;;;5.95;;
57241;SDS011;43095;53.302;5.786;2023-02-28T06:58:49;8.73;;;6.00;;
57241;SDS011;43095;53.302;5.786;2023-02-28T07:01:17;9.77;;;6.30;;
57241;SDS011;43095;53.302;5.786;2023-02-28T07:03:45;9.68;;;7.22;;
57241;SDS011;43095;53.302;5.786;2023-02-28T07:06:13;12.13;;;8.05;;
57241;SDS011;43095;53.302;5.786;2023-02-28T07:08:41;11.25;;;7.38;;
57241;SDS011;43095;53.302;5.786;2023-02-28T07:11:08;11.75;;;7.55;;
57241;SDS011;43095;53.302;5.786;2023-02-28T07:13:36;10.77;;;6.15;;
57241;SDS011;43095;53.302;5.786;2023-02-28T07:16:05;10.55;;;6.30;;
57241;SDS011;43095;53.302;5.786;2023-02-28T07:18:33;10.00;;;6.82;;
57241;SDS011;43095;53.302;5.786;2023-02-28T07:21:04;12.23;;;7.30;;
57241;SDS011;43095;53.302;5.786;2023-02-28T07:23:33;10.17;;;7.23;;
57241;SDS011;43095;53.302;5.786;2023-02-28T07:26:01;13.32;;;8.00;;
57241;SDS011;43095;53.302;5.786;2023-02-28T07:28:28;10.93;;;7.47;;
57241;SDS011;43095;53.302;5.786;2023-02-28T07:30:56;6.97;;;5.38;;
57241;SDS011;43095;53.302;5.786;2023-02-28T07:33:24;6.60;;;5.10;;
57241;SDS011;43095;53.302;5.786;2023-02-28T07:35:51;8.02;;;5.25;;
57241;SDS011;43095;53.302;5.786;2023-02-28T07:38:19;8.65;;;6.18;;
57241;SDS011;43095;53.302;5.786;2023-02-28T07:40:47;10.32;;;7.38;;
57241;SDS011;43095;53.302;5.786;2023-02-28T07:43:14;9.25;;;7.45;;
57241;SDS011;43095;53.302;5.786;2023-02-28T07:45:42;11.15;;;7.45;;
57241;SDS011;43095;53.302;5.786;2023-02-28T07:48:10;9.13;;;7.25;;
57241;SDS011;43095;53.302;5.786;2023-02-28T07:50:37;9.40;;;7.03;;
57241;SDS011;43095;53.302;5.786;2023-02-28T07:53:05;9.18;;;7.07;;
57241;SDS011;43095;53.302;5.786;2023-02-28T07:55:33;10.98;;;8.18;;
57241;SDS011;43095;53.302;5.786;2023-02-28T07:58:01;12.75;;;8.23;;
57241;SDS011;43095;53.302;5.786;2023-02-28T08:00:29;12.75;;;8.20;;
57241;SDS011;43095;53.302;5.786;2023-02-28T08:02:58;13.07;;;9.15;;
57241;SDS011;43095;53.302;5.786;2023-02-28T08:05:26;12.05;;;8.70;;
57241;SDS011;43095;53.302;5.786;2023-02-28T08:07:54;11.13;;;8.38;;
57241;SDS011;43095;53.302;5.786;2023-02-28T08:10:21;14.27;;;9.63;;
57241;SDS011;43095;53.302;5.786;2023-02-28T08:12:50;12.05;;;9.00;;
57241;SDS011;43095;53.302;5.786;2023-02-28T08:15:18;10.60;;;8.27;;
57241;SDS011;43095;53.302;5.786;2023-02-28T08:17:45;11.93;;;9.45;;
57241;SDS011;43095;53.302;5.786;2023-02-28T08:20:13;14.25;;;9.45;;
57241;SDS011;43095;53.302;5.786;2023-02-28T08:22:41;12.50;;;9.68;;
57241;SDS011;43095;53.302;5.786;2023-02-28T08:25:11;16.58;;;10.43;;
57241;SDS011;43095;53.302;5.786;2023-02-28T08:27:39;16.55;;;10.82;;
57241;SDS011;43095;53.302;5.786;2023-02-28T08:30:07;18.17;;;11.38;;
57241;SDS011;43095;53.302;5.786;2023-02-28T08:32:34;17.23;;;10.93;;
57241;SDS011;43095;53.302;5.786;2023-02-28T08:35:03;15.82;;;11.45;;
57241;SDS011;43095;53.302;5.786;2023-02-28T08:37:31;14.70;;;10.75;;
57241;SDS011;43095;53.302;5.786;2023-02-28T08:39:58;20.58;;;11.90;;
57241;SDS011;43095;53.302;5.786;2023-02-28T08:42:26;16.80;;;11.48;;
57241;SDS011;43095;53.302;5.786;2023-02-28T08:44:53;17.45;;;11.43;;
57241;SDS011;43095;53.302;5.786;2023-02-28T08:47:21;14.68;;;10.70;;
57241;SDS011;43095;53.302;5.786;2023-02-28T08:49:49;15.30;;;11.40;;
57241;SDS011;43095;53.302;5.786;2023-02-28T08:52:16;14.73;;;10.68;;
57241;SDS011;43095;53.302;5.786;2023-02-28T08:54:44;15.27;;;11.00;;
57241;SDS011;43095;53.302;5.786;2023-02-28T08:57:12;16.15;;;11.63;;
57241;SDS011;43095;53.302;5.786;2023-02-28T08:59:40;15.15;;;10.90;;
57241;SDS011;43095;53.302;5.786;2023-02-28T09:02:08;14.60;;;11.65;;
57241;SDS011;43095;53.302;5.786;2023-02-28T09:04:36;17.42;;;11.65;;
57241;SDS011;43095;53.302;5.786;2023-02-28T09:07:03;16.00;;;11.65;;
57241;SDS011;43095;53.302;5.786;2023-02-28T09:09:31;16.17;;;11.13;;
57241;SDS011;43095;53.302;5.786;2023-02-28T09:11:59;14.07;;;10.90;;
57241;SDS011;43095;53.302;5.786;2023-02-28T09:14:26;14.73;;;10.55;;
57241;SDS011;43095;53.302;5.786;2023-02-28T09:16:54;16.30;;;10.73;;
57241;SDS011;43095;53.302;5.786;2023-02-28T09:19:22;14.63;;;10.43;;
57241;SDS011;43095;53.302;5.786;2023-02-28T09:21:49;16.58;;;10.65;;
57241;SDS011;43095;53.302;5.786;2023-02-28T09:24:18;15.57;;;11.40;;
57241;SDS011;43095;53.302;5.786;2023-02-28T09:26:47;16.10;;;10.75;;
57241;SDS011;43095;53.302;5.786;2023-02-28T09:29:29;14.77;;;10.98;;
57241;SDS011;43095;53.302;5.786;2023-02-28T09:31:57;13.18;;;10.38;;
57241;SDS011;43095;53.302;5.786;2023-02-28T09:34:28;13.90;;;10.98;;
57241;SDS011;43095;53.302;5.786;2023-02-28T09:36:57;13.35;;;10.13;;
57241;SDS011;43095;53.302;5.786;2023-02-28T09:39:25;12.95;;;10.68;;
57241;SDS011;43095;53.302;5.786;2023-02-28T09:41:53;14.57;;;10.38;;
57241;SDS011;43095;53.302;5.786;2023-02-28T09:44:27;13.07;;;9.77;;
57241;SDS011;43095;53.302;5.786;2023-02-28T09:47:00;12.40;;;9.98;;
57241;SDS011;43095;53.302;5.786;2023-02-28T09:49:31;15.77;;;10.55;;
57241;SDS011;43095;53.302;5.786;2023-02-28T09:52:04;13.98;;;10.40;;
57241;SDS011;43095;53.302;5.786;2023-02-28T09:54:35;15.18;;;10.02;;
57241;SDS011;43095;53.302;5.786;2023-02-28T10:02:23;15.25;;;9.93;;
57241;SDS011;43095;53.302;5.786;2023-02-28T10:04:58;14.32;;;10.73;;
57241;SDS011;43095;53.302;5.786;2023-02-28T10:10:17;12.27;;;9.60;;
57241;SDS011;43095;53.302;5.786;2023-02-28T10:12:47;13.75;;;10.85;;
57241;SDS011;43095;53.302;5.786;2023-02-28T10:15:15;13.63;;;10.13;;
57241;SDS011;43095;53.302;5.786;2023-02-28T10:17:45;13.98;;;10.45;;
57241;SDS011;43095;53.302;5.786;2023-02-28T10:20:26;11.55;;;9.40;;
57241;SDS011;43095;53.302;5.786;2023-02-28T10:23:17;12.35;;;9.73;;
57241;SDS011;43095;53.302;5.786;2023-02-28T10:26:32;10.40;;;8.70;;
57241;SDS011;43095;53.302;5.786;2023-02-28T10:28:34;10.45;;;8.10;;
57241;SDS011;43095;53.302;5.786;2023-02-28T10:31:02;13.77;;;8.85;;
57241;SDS011;43095;53.302;5.786;2023-02-28T10:33:32;11.50;;;8.18;;
57241;SDS011;43095;53.302;5.786;2023-02-28T10:36:01;11.57;;;8.90;;
57241;SDS011;43095;53.302;5.786;2023-02-28T10:38:32;13.20;;;9.23;;
57241;SDS011;43095;53.302;5.786;2023-02-28T10:41:04;12.82;;;8.93;;
57241;SDS011;43095;53.302;5.786;2023-02-28T10:43:32;12.27;;;8.00;;
57241;SDS011;43095;53.302;5.786;2023-02-28T10:46:02;13.43;;;8.85;;
57241;SDS011;43095;53.302;5.786;2023-02-28T10:48:32;12.85;;;9.00;;
57241;SDS011;43095;53.302;5.786;2023-02-28T10:51:01;13.82;;;9.10;;
57241;SDS011;43095;53.302;5.786;2023-02-28T10:58:54;12.95;;;7.43;;
57241;SDS011;43095;53.302;5.786;2023-02-28T11:01:39;10.43;;;8.07;;
57241;SDS011;43095;53.302;5.786;2023-02-28T11:04:17;15.13;;;8.15;;
57241;SDS011;43095;53.302;5.786;2023-02-28T11:06:46;10.18;;;7.10;;
57241;SDS011;43095;53.302;5.786;2023-02-28T11:11:47;8.38;;;6.38;;
57241;SDS011;43095;53.302;5.786;2023-02-28T11:14:24;12.18;;;7.03;;
57241;SDS011;43095;53.302;5.786;2023-02-28T11:16:53;11.48;;;7.13;;
57241;SDS011;43095;53.302;5.786;2023-02-28T11:19:56;11.43;;;7.40;;
57241;SDS011;43095;53.302;5.786;2023-02-28T11:22:23;15.57;;;7.13;;
57241;SDS011;43095;53.302;5.786;2023-02-28T11:24:51;11.23;;;7.00;;
57241;SDS011;43095;53.302;5.786;2023-02-28T11:29:53;9.70;;;6.00;;
57241;SDS011;43095;53.302;5.786;2023-02-28T11:32:23;11.23;;;5.88;;
57241;SDS011;43095;53.302;5.786;2023-02-28T11:37:28;11.38;;;5.97;;
57241;SDS011;43095;53.302;5.786;2023-02-28T11:39:56;10.13;;;5.82;;
57241;SDS011;43095;53.302;5.786;2023-02-28T11:55:14;8.75;;;5.80;;
57241;SDS011;43095;53.302;5.786;2023-02-28T12:06:27;7.68;;;5.05;;
57241;SDS011;43095;53.302;5.786;2023-02-28T12:11:27;7.53;;;4.45;;
57241;SDS011;43095;53.302;5.786;2023-02-28T12:19:18;8.98;;;5.55;;
57241;SDS011;43095;53.302;5.786;2023-02-28T12:21:58;9.18;;;4.03;;
57241;SDS011;43095;53.302;5.786;2023-02-28T12:26:58;7.95;;;4.82;;
57241;SDS011;43095;53.302;5.786;2023-02-28T12:29:32;9.88;;;5.15;;
57241;SDS011;43095;53.302;5.786;2023-02-28T12:32:04;5.60;;;4.30;;
57241;SDS011;43095;53.302;5.786;2023-02-28T12:34:41;6.32;;;4.50;;
57241;SDS011;43095;53.302;5.786;2023-02-28T12:37:13;9.70;;;4.60;;
57241;SDS011;43095;53.302;5.786;2023-02-28T12:39:44;8.60;;;4.65;;
57241;SDS011;43095;53.302;5.786;2023-02-28T12:42:30;6.93;;;4.63;;
57241;SDS011;43095;53.302;5.786;2023-02-28T12:45:01;7.28;;;4.32;;
57241;SDS011;43095;53.302;5.786;2023-02-28T12:47:30;6.70;;;4.43;;
57241;SDS011;43095;53.302;5.786;2023-02-28T12:50:05;6.80;;;4.68;;
57241;SDS011;43095;53.302;5.786;2023-02-28T12:55:27;6.88;;;4.25;;
57241;SDS011;43095;53.302;5.786;2023-02-28T13:00:25;5.72;;;4.13;;
57241;SDS011;43095;53.302;5.786;2023-02-28T13:13:17;6.82;;;4.57;;
57241;SDS011;43095;53.302;5.786;2023-02-28T13:20:56;6.10;;;3.97;;
57241;SDS011;43095;53.302;5.786;2023-02-28T13:23:36;8.90;;;4.78;;
57241;SDS011;43095;53.302;5.786;2023-02-28T13:26:04;7.82;;;4.75;;
57241;SDS011;43095;53.302;5.786;2023-02-28T13:31:20;7.50;;;4.40;;
57241;SDS011;43095;53.302;5.786;2023-02-28T13:36:27;7.13;;;4.70;;
57241;SDS011;43095;53.302;5.786;2023-02-28T13:39:02;7.07;;;4.35;;
57241;SDS011;43095;53.302;5.786;2023-02-28T13:46:36;6.60;;;4.63;;
57241;SDS011;43095;53.302;5.786;2023-02-28T14:05:23;8.50;;;4.55;;
57241;SDS011;43095;53.302;5.786;2023-02-28T14:07:54;6.68;;;4.45;;
57241;SDS011;43095;53.302;5.786;2023-02-28T14:10:23;8.98;;;5.05;;
57241;SDS011;43095;53.302;5.786;2023-02-28T14:12:53;7.18;;;4.78;;
57241;SDS011;43095;53.302;5.786;2023-02-28T14:17:55;9.73;;;5.25;;
57241;SDS011;43095;53.302;5.786;2023-02-28T14:20:26;8.13;;;4.82;;
57241;SDS011;43095;53.302;5.786;2023-02-28T14:23:01;7.45;;;5.30;;
57241;SDS011;43095;53.302;5.786;2023-02-28T14:25:34;6.72;;;5.38;;
57241;SDS011;43095;53.302;5.786;2023-02-28T14:38:29;7.70;;;5.28;;
57241;SDS011;43095;53.302;5.786;2023-02-28T14:40:58;10.52;;;5.95;;
57241;SDS011;43095;53.302;5.786;2023-02-28T14:43:28;8.77;;;5.78;;
57241;SDS011;43095;53.302;5.786;2023-02-28T14:46:02;7.15;;;5.95;;
57241;SDS011;43095;53.302;5.786;2023-02-28T14:48:31;6.88;;;5.80;;
57241;SDS011;43095;53.302;5.786;2023-02-28T14:51:00;8.95;;;6.00;;
57241;SDS011;43095;53.302;5.786;2023-02-28T14:53:29;8.52;;;5.80;;
57241;SDS011;43095;53.302;5.786;2023-02-28T14:55:57;6.28;;;5.65;;
57241;SDS011;43095;53.302;5.786;2023-02-28T14:58:31;6.88;;;5.55;;
57241;SDS011;43095;53.302;5.786;2023-02-28T15:01:00;8.03;;;5.83;;
57241;SDS011;43095;53.302;5.786;2023-02-28T15:03:32;7.95;;;6.20;;
57241;SDS011;43095;53.302;5.786;2023-02-28T15:06:00;6.38;;;5.65;;
57241;SDS011;43095;53.302;5.786;2023-02-28T15:08:29;5.95;;;4.95;;
57241;SDS011;43095;53.302;5.786;2023-02-28T15:11:05;6.32;;;5.07;;
57241;SDS011;43095;53.302;5.786;2023-02-28T15:16:04;7.45;;;4.97;;
57241;SDS011;43095;53.302;5.786;2023-02-28T15:18:41;6.07;;;5.15;;
57241;SDS011;43095;53.302;5.786;2023-02-28T15:21:17;7.82;;;5.30;;
57241;SDS011;43095;53.302;5.786;2023-02-28T15:23:48;7.43;;;5.10;;
57241;SDS011;43095;53.302;5.786;2023-02-28T15:26:18;7.78;;;5.35;;
57241;SDS011;43095;53.302;5.786;2023-02-28T15:28:47;7.60;;;5.28;;
57241;SDS011;43095;53.302;5.786;2023-02-28T15:31:20;9.05;;;5.70;;
57241;SDS011;43095;53.302;5.786;2023-02-28T15:33:54;9.45;;;5.93;;
57241;SDS011;43095;53.302;5.786;2023-02-28T15:36:23;8.93;;;5.68;;
57241;SDS011;43095;53.302;5.786;2023-02-28T15:38:54;8.10;;;5.85;;
57241;SDS011;43095;53.302;5.786;2023-02-28T15:41:36;7.22;;;5.72;;
57241;SDS011;43095;53.302;5.786;2023-02-28T15:47:06;7.57;;;5.72;;
57241;SDS011;43095;53.302;5.786;2023-02-28T15:49:39;9.73;;;5.82;;
57241;SDS011;43095;53.302;5.786;2023-02-28T15:52:15;6.88;;;5.03;;
57241;SDS011;43095;53.302;5.786;2023-02-28T15:57:16;8.40;;;6.10;;
57241;SDS011;43095;53.302;5.786;2023-02-28T15:59:49;10.27;;;6.15;;
57241;SDS011;43095;53.302;5.786;2023-02-28T16:02:21;9.05;;;5.57;;
57241;SDS011;43095;53.302;5.786;2023-02-28T16:05:00;8.68;;;6.20;;
57241;SDS011;43095;53.302;5.786;2023-02-28T16:07:28;8.60;;;6.53;;
57241;SDS011;43095;53.302;5.786;2023-02-28T16:09:56;8.93;;;6.55;;
57241;SDS011;43095;53.302;5.786;2023-02-28T16:12:25;8.60;;;6.25;;
57241;SDS011;43095;53.302;5.786;2023-02-28T16:14:54;8.52;;;7.03;;
57241;SDS011;43095;53.302;5.786;2023-02-28T16:17:26;8.93;;;7.07;;
57241;SDS011;43095;53.302;5.786;2023-02-28T16:19:55;9.90;;;7.00;;
57241;SDS011;43095;53.302;5.786;2023-02-28T16:22:23;10.05;;;6.78;;
57241;SDS011;43095;53.302;5.786;2023-02-28T16:24:50;10.95;;;7.20;;
57241;SDS011;43095;53.302;5.786;2023-02-28T16:27:20;10.48;;;7.88;;
57241;SDS011;43095;53.302;5.786;2023-02-28T16:29:49;13.45;;;8.00;;
57241;SDS011;43095;53.302;5.786;2023-02-28T16:32:16;12.32;;;7.97;;
57241;SDS011;43095;53.302;5.786;2023-02-28T16:34:46;11.98;;;8.18;;
57241;SDS011;43095;53.302;5.786;2023-02-28T16:37:15;9.95;;;7.90;;
57241;SDS011;43095;53.302;5.786;2023-02-28T16:39:43;12.02;;;7.85;;
57241;SDS011;43095;53.302;5.786;2023-02-28T16:42:22;9.30;;;7.45;;
57241;SDS011;43095;53.302;5.786;2023-02-28T16:44:50;10.63;;;7.53;;
57241;SDS011;43095;53.302;5.786;2023-02-28T16:47:17;13.00;;;8.43;;
57241;SDS011;43095;53.302;5.786;2023-02-28T16:49:45;12.63;;;8.10;;
57241;SDS011;43095;53.302;5.786;2023-02-28T16:52:14;13.80;;;7.75;;
57241;SDS011;43095;53.302;5.786;2023-02-28T16:54:41;13.63;;;8.13;;
57241;SDS011;43095;53.302;5.786;2023-02-28T16:57:20;10.00;;;7.78;;
57241;SDS011;43095;53.302;5.786;2023-02-28T16:59:49;13.27;;;8.90;;
57241;SDS011;43095;53.302;5.786;2023-02-28T17:02:20;25.38;;;11.48;;
57241;SDS011;43095;53.302;5.786;2023-02-28T17:04:48;13.27;;;8.07;;
57241;SDS011;43095;53.302;5.786;2023-02-28T17:07:16;11.07;;;8.45;;
57241;SDS011;43095;53.302;5.786;2023-02-28T17:09:44;11.15;;;8.02;;
57241;SDS011;43095;53.302;5.786;2023-02-28T17:12:12;16.58;;;9.63;;
57241;SDS011;43095;53.302;5.786;2023-02-28T17:14:40;14.90;;;9.23;;
57241;SDS011;43095;53.302;5.786;2023-02-28T17:17:10;11.80;;;8.75;;
57241;SDS011;43095;53.302;5.786;2023-02-28T17:19:42;11.60;;;9.10;;
57241;SDS011;43095;53.302;5.786;2023-02-28T17:22:10;12.07;;;8.93;;
57241;SDS011;43095;53.302;5.786;2023-02-28T17:24:38;11.02;;;8.05;;
57241;SDS011;43095;53.302;5.786;2023-02-28T17:27:05;12.10;;;9.23;;
57241;SDS011;43095;53.302;5.786;2023-02-28T17:29:34;13.38;;;8.90;;
57241;SDS011;43095;53.302;5.786;2023-02-28T17:32:02;16.10;;;9.98;;
57241;SDS011;43095;53.302;5.786;2023-02-28T17:34:43;15.38;;;9.13;;
57241;SDS011;43095;53.302;5.786;2023-02-28T17:37:12;14.80;;;9.18;;
57241;SDS011;43095;53.302;5.786;2023-02-28T17:39:40;13.95;;;10.57;;
57241;SDS011;43095;53.302;5.786;2023-02-28T17:42:08;14.23;;;10.35;;
57241;SDS011;43095;53.302;5.786;2023-02-28T17:44:35;11.98;;;10.00;;
57241;SDS011;43095;53.302;5.786;2023-02-28T17:47:04;15.65;;;12.15;;
57241;SDS011;43095;53.302;5.786;2023-02-28T17:49:32;14.82;;;12.38;;
57241;SDS011;43095;53.302;5.786;2023-02-28T17:51:59;15.55;;;11.77;;
57241;SDS011;43095;53.302;5.786;2023-02-28T17:54:27;16.10;;;10.95;;
57241;SDS011;43095;53.302;5.786;2023-02-28T17:56:55;15.23;;;9.95;;
57241;SDS011;43095;53.302;5.786;2023-02-28T17:59:22;19.38;;;10.60;;
57241;SDS011;43095;53.302;5.786;2023-02-28T18:01:50;14.27;;;10.88;;
57241;SDS011;43095;53.302;5.786;2023-02-28T18:04:18;16.40;;;11.75;;
57241;SDS011;43095;53.302;5.786;2023-02-28T18:06:45;13.05;;;10.35;;
57241;SDS011;43095;53.302;5.786;2023-02-28T18:09:16;11.88;;;9.75;;
57241;SDS011;43095;53.302;5.786;2023-02-28T18:11:44;12.88;;;10.00;;
57241;SDS011;43095;53.302;5.786;2023-02-28T18:14:11;13.77;;;10.20;;
57241;SDS011;43095;53.302;5.786;2023-02-28T18:16:39;11.65;;;8.63;;
57241;SDS011;43095;53.302;5.786;2023-02-28T18:19:07;15.13;;;10.82;;
57241;SDS011;43095;53.302;5.786;2023-02-28T18:21:40;15.82;;;11.18;;
57241;SDS011;43095;53.302;5.786;2023-02-28T18:24:18;13.07;;;9.05;;
57241;SDS011;43095;53.302;5.786;2023-02-28T18:26:52;12.02;;;9.57;;
57241;SDS011;43095;53.302;5.786;2023-02-28T18:29:21;15.93;;;10.52;;
57241;SDS011;43095;53.302;5.786;2023-02-28T18:31:51;14.73;;;10.77;;
57241;SDS011;43095;53.302;5.786;2023-02-28T18:34:20;14.60;;;10.70;;
57241;SDS011;43095;53.302;5.786;2023-02-28T18:36:48;16.75;;;11.95;;
57241;SDS011;43095;53.302;5.786;2023-02-28T18:39:16;21.25;;;12.95;;
57241;SDS011;43095;53.302;5.786;2023-02-28T18:41:44;14.75;;;10.45;;
57241;SDS011;43095;53.302;5.786;2023-02-28T18:44:12;14.65;;;10.35;;
57241;SDS011;43095;53.302;5.786;2023-02-28T18:46:46;13.45;;;9.88;;
57241;SDS011;43095;53.302;5.786;2023-02-28T18:49:14;14.48;;;9.65;;
57241;SDS011;43095;53.302;5.786;2023-02-28T18:51:41;13.15;;;9.70;;
57241;SDS011;43095;53.302;5.786;2023-02-28T18:54:11;13.68;;;10.13;;
57241;SDS011;43095;53.302;5.786;2023-02-28T18:56:39;15.52;;;11.27;;
57241;SDS011;43095;53.302;5.786;2023-02-28T18:59:07;15.95;;;11.65;;
57241;SDS011;43095;53.302;5.786;2023-02-28T19:01:35;26.00;;;16.88;;
57241;SDS011;43095;53.302;5.786;2023-02-28T19:04:03;29.92;;;18.42;;
57241;SDS011;43095;53.302;5.786;2023-02-28T19:06:31;28.25;;;18.17;;
57241;SDS011;43095;53.302;5.786;2023-02-28T19:09:01;23.38;;;16.08;;
57241;SDS011;43095;53.302;5.786;2023-02-28T19:11:29;22.48;;;15.20;;
57241;SDS011;43095;53.302;5.786;2023-02-28T19:13:57;19.23;;;14.13;;
57241;SDS011;43095;53.302;5.786;2023-02-28T19:16:25;16.67;;;12.48;;
57241;SDS011;43095;53.302;5.786;2023-02-28T19:18:56;17.55;;;12.57;;
57241;SDS011;43095;53.302;5.786;2023-02-28T19:21:24;17.73;;;12.05;;
57241;SDS011;43095;53.302;5.786;2023-02-28T19:23:52;17.00;;;11.75;;
57241;SDS011;43095;53.302;5.786;2023-02-28T19:26:21;17.33;;;11.93;;
57241;SDS011;43095;53.302;5.786;2023-02-28T19:28:49;17.15;;;11.65;;
57241;SDS011;43095;53.302;5.786;2023-02-28T19:31:18;19.52;;;13.38;;
57241;SDS011;43095;53.302;5.786;2023-02-28T19:33:47;17.98;;;12.95;;
57241;SDS011;43095;53.302;5.786;2023-02-28T19:36:16;19.38;;;12.23;;
57241;SDS011;43095;53.302;5.786;2023-02-28T19:38:44;19.55;;;13.50;;
57241;SDS011;43095;53.302;5.786;2023-02-28T19:41:12;19.38;;;12.52;;
57241;SDS011;43095;53.302;5.786;2023-02-28T19:43:40;20.02;;;14.18;;
57241;SDS011;43095;53.302;5.786;2023-02-28T19:46:08;19.23;;;13.23;;
57241;SDS011;43095;53.302;5.786;2023-02-28T19:48:37;23.40;;;14.18;;
57241;SDS011;43095;53.302;5.786;2023-02-28T19:51:07;22.67;;;16.67;;
57241;SDS011;43095;53.302;5.786;2023-02-28T19:53:36;19.38;;;12.40;;
57241;SDS011;43095;53.302;5.786;2023-02-28T19:56:04;22.00;;;14.73;;
57241;SDS011;43095;53.302;5.786;2023-02-28T19:58:32;22.30;;;14.43;;
57241;SDS011;43095;53.302;5.786;2023-02-28T20:01:10;23.80;;;14.52;;
57241;SDS011;43095;53.302;5.786;2023-02-28T20:03:38;23.60;;;14.95;;
57241;SDS011;43095;53.302;5.786;2023-02-28T20:06:07;24.48;;;15.60;;
57241;SDS011;43095;53.302;5.786;2023-02-28T20:08:36;28.83;;;16.70;;
57241;SDS011;43095;53.302;5.786;2023-02-28T20:11:05;22.25;;;15.40;;
57241;SDS011;43095;53.302;5.786;2023-02-28T20:13:34;23.27;;;15.55;;
57241;SDS011;43095;53.302;5.786;2023-02-28T20:16:03;20.90;;;13.73;;
57241;SDS011;43095;53.302;5.786;2023-02-28T20:18:36;23.15;;;16.27;;
57241;SDS011;43095;53.302;5.786;2023-02-28T20:21:06;34.15;;;20.85;;
57241;SDS011;43095;53.302;5.786;2023-02-28T20:23:34;39.75;;;24.00;;
57241;SDS011;43095;53.302;5.786;2023-02-28T20:26:03;30.48;;;19.35;;
57241;SDS011;43095;53.302;5.786;2023-02-28T20:28:32;29.23;;;19.35;;
57241;SDS011;43095;53.302;5.786;2023-02-28T20:30:59;27.55;;;18.75;;
57241;SDS011;43095;53.302;5.786;2023-02-28T20:33:27;30.05;;;19.42;;
57241;SDS011;43095;53.302;5.786;2023-02-28T20:35:59;31.80;;;20.92;;
57241;SDS011;43095;53.302;5.786;2023-02-28T20:38:27;29.98;;;20.30;;
57241;SDS011;43095;53.302;5.786;2023-02-28T20:40:59;33.80;;;19.33;;
57241;SDS011;43095;53.302;5.786;2023-02-28T20:43:27;39.38;;;21.23;;
57241;SDS011;43095;53.302;5.786;2023-02-28T20:45:56;35.03;;;20.88;;
57241;SDS011;43095;53.302;5.786;2023-02-28T20:48:26;30.05;;;19.60;;
57241;SDS011;43095;53.302;5.786;2023-02-28T20:50:55;31.38;;;18.55;;
57241;SDS011;43095;53.302;5.786;2023-02-28T20:53:24;30.42;;;18.75;;
57241;SDS011;43095;53.302;5.786;2023-02-28T20:55:53;29.30;;;19.00;;
57241;SDS011;43095;53.302;5.786;2023-02-28T20:58:21;30.92;;;18.92;;
57241;SDS011;43095;53.302;5.786;2023-02-28T21:00:50;33.45;;;19.83;;
57241;SDS011;43095;53.302;5.786;2023-02-28T21:03:18;29.58;;;18.70;;
57241;SDS011;43095;53.302;5.786;2023-02-28T21:05:46;27.88;;;17.08;;
57241;SDS011;43095;53.302;5.786;2023-02-28T21:08:13;31.10;;;18.73;;
57241;SDS011;43095;53.302;5.786;2023-02-28T21:10:41;28.23;;;18.13;;
57241;SDS011;43095;53.302;5.786;2023-02-28T21:13:09;33.33;;;20.17;;
57241;SDS011;43095;53.302;5.786;2023-02-28T21:15:37;28.13;;;18.52;;
57241;SDS011;43095;53.302;5.786;2023-02-28T21:18:07;29.25;;;18.30;;